Suula — OJKZ — position and weather

sailwx.info

Track history (hours):
 
Tides and Currents Weather Stations Pressure Air Temp Water Temp Dewpoint Dewpoint Depression Visibility Wind Speed Wind Dir Waves Ship Positions

Suula

Last reported at 2015-Aug-03 12:34 UTC. Time now 2015-Aug-03 13:12 UTC.
Position N 52°03' E 003°51'.

Length 140 m; draft 6.5 m.

Type: Tanker. MMSI: 230956996.

Date/timePositionNaut miles runAvg speedWind from/ knotsBaromVisibWave heightAir tempDewpointWater temp
2015-Aug-03 12:34N 52°03' E 003°51'9 9.2
2015-Aug-03 11:33N 51°58' E 004°03'1 0.6
2015-Aug-03 10:30N 51°58' E 004°02'0 0.0
2015-Aug-03 09:33N 51°58' E 004°02'0 0.0
2015-Aug-03 08:32N 51°58' E 004°02'0 0.0
2015-Aug-03 07:32N 51°58' E 004°02'0 0.0
2015-Aug-03 06:32N 51°58' E 004°02'0 0.0
2015-Aug-03 05:32N 51°58' E 004°02'0 0.0
2015-Aug-03 04:32N 51°58' E 004°02'0 0.0
2015-Aug-03 03:32N 51°58' E 004°02'0 0.0
2015-Aug-03 02:32N 51°58' E 004°02'0 0.0
2015-Aug-03 01:32N 51°58' E 004°02'0 0.0
2015-Aug-03 00:32N 51°58' E 004°02'0 0.0
2015-Aug-02 23:32N 51°58' E 004°02'0 0.0
2015-Aug-02 22:32N 51°58' E 004°02'0 0.0
2015-Aug-02 21:32N 51°58' E 004°02'0 0.0
2015-Aug-02 20:32N 51°58' E 004°02'0 0.0
2015-Aug-02 19:32N 51°58' E 004°02'0 0.0
2015-Aug-02 18:32N 51°58' E 004°02'0 0.0
2015-Aug-02 17:32N 51°58' E 004°02'0 0.0
2015-Aug-02 16:32N 51°58' E 004°02'0 0.0
2015-Aug-02 15:32N 51°58' E 004°02'2 1.9
2015-Aug-02 14:33N 51°59' E 004°05'1414.4
2015-Aug-02 13:33N 51°58' E 003°41'1717.2
2015-Aug-02 12:33N 51°55' E 003°14'12 9.7
2015-Aug-02 11:18N 51°55' E 002°54'0 0.0
2015-Aug-02 10:33N 51°55' E 002°54'0 0.0
2015-Aug-02 09:12N 51°55' E 002°54'0 0.0
2015-Aug-02 08:30N 51°55' E 002°54'0 0.0
2015-Aug-02 07:33N 51°55' E 002°54'0 0.1
2015-Aug-02 06:33N 51°56' E 002°54'0 0.0
2015-Aug-02 04:21N 51°56' E 002°55'0 0.0
2015-Aug-02 03:30N 51°56' E 002°55'0 0.0
2015-Aug-02 02:24N 51°56' E 002°55'0 0.0
2015-Aug-02 01:30N 51°56' E 002°55'0 0.0
2015-Aug-02 00:33N 51°56' E 002°55'0 0.1
2015-Aug-01 22:03N 51°55' E 002°54'0 0.1
2015-Aug-01 21:18N 51°55' E 002°54'0 0.0
2015-Aug-01 20:24N 51°55' E 002°54'0 0.1
2015-Aug-01 19:12N 51°56' E 002°54'0 0.0
2015-Aug-01 18:27N 51°56' E 002°54'0 0.0
2015-Aug-01 17:33N 51°56' E 002°54'0 0.0
2015-Aug-01 16:33N 51°56' E 002°54'0 0.0
2015-Aug-01 15:33N 51°56' E 002°55'0 0.0
2015-Aug-01 13:24N 51°56' E 002°55'34 0.9
2015-Jul-31 01:25N 51°31' E 002°16'910.7
2015-Jul-31 00:33N 51°24' E 002°08'10 9.8
2015-Jul-30 23:33N 51°14' E 002°03'1010.2
2015-Jul-30 22:33N 51°09' E 001°49'1110.8
2015-Jul-30 21:33N 51°02' E 001°36'1110.7
2015-Jul-30 20:33N 50°54' E 001°25'50 9.7
2015-Jul-30 15:22N 50°24' E 000°21'261 9.6
2015-Jul-29 12:09N 47°58' W 005°09'712.7
2015-Jul-29 11:33N 47°55' W 004°59'1312.7
2015-Jul-29 10:33N 47°47' W 004°44'3113.0
2015-Jul-29 08:13N 47°27' W 004°09'812.8
2015-Jul-29 07:34N 47°22' W 003°59'1312.7
2015-Jul-29 06:34N 47°14' W 003°45'1312.5
2015-Jul-29 05:34N 47°07' W 003°30'1312.9
2015-Jul-29 04:33N 46°58' W 003°15'1312.6
2015-Jul-29 03:33N 46°51' W 003°01'1312.3
2015-Jul-29 02:29N 46°43' W 002°46'1212.2
2015-Jul-29 01:32N 46°36' W 002°32'1212.4
2015-Jul-29 00:33N 46°28' W 002°19'1212.1
2015-Jul-28 23:34N 46°21' W 002°05'1212.5
2015-Jul-28 22:34N 46°13' W 001°51'1212.0
2015-Jul-28 21:34N 46°08' W 001°35'1312.6
2015-Jul-28 20:33N 46°06' W 001°17'4 4.0
2015-Jul-28 19:33N 46°09' W 001°14'0 0.0
2015-Jul-28 18:33N 46°09' W 001°14'0 0.0
2015-Jul-28 17:33N 46°09' W 001°14'0 0.0
2015-Jul-28 16:33N 46°09' W 001°14'0 0.0
2015-Jul-28 15:33N 46°09' W 001°14'0 0.0
2015-Jul-28 14:33N 46°09' W 001°14'0 0.0
2015-Jul-28 13:33N 46°09' W 001°14'0 0.0
2015-Jul-28 12:33N 46°09' W 001°14'0 0.0
2015-Jul-28 11:33N 46°09' W 001°14'0 0.0
2015-Jul-28 10:33N 46°09' W 001°14'0 0.0
2015-Jul-28 09:33N 46°09' W 001°14'0 0.0
2015-Jul-28 08:33N 46°09' W 001°14'0 0.0
2015-Jul-28 07:33N 46°09' W 001°14'0 0.0
2015-Jul-28 06:33N 46°09' W 001°14'0 0.0
2015-Jul-28 05:33N 46°09' W 001°14'0 0.0
2015-Jul-28 04:33N 46°09' W 001°14'0 0.5
2015-Jul-28 03:33N 46°09' W 001°15'7 7.0
2015-Jul-28 02:33N 46°06' W 001°24'1413.3
2015-Jul-28 01:32N 46°09' W 001°44'1212.4
2015-Jul-28 00:33N 46°16' W 001°58'1212.3
2015-Jul-27 23:33N 46°23' W 002°12'8113.2
2015-Jul-27 17:27N 47°10' W 003°48'255 8.5
2015-Jul-26 11:26N 50°30' E 000°12'1315.3
2015-Jul-26 10:33N 50°34' E 000°32'1515.1
2015-Jul-26 09:33N 50°43' E 000°52'2814.2
2015-Jul-26 07:33N 51°00' E 001°26'1313.4
2015-Jul-26 06:33N 51°10' E 001°41'1414.0
2015-Jul-26 05:34N 51°22' E 001°54'1515.0
2015-Jul-26 04:33N 51°34' E 002°08'8814.6
2015-Jul-25 22:33N 52°31' E 003°56'1313.2
2015-Jul-25 21:33N 52°30' E 004°17'1211.7
2015-Jul-25 20:33N 52°28' E 004°36'3 3.1
2015-Jul-25 19:33N 52°27' E 004°41'4 4.1
2015-Jul-25 18:33N 52°24' E 004°46'0 0.0
2015-Jul-25 17:30N 52°24' E 004°46'0 0.0
2015-Jul-25 16:33N 52°24' E 004°46'0 0.0
2015-Jul-25 15:33N 52°24' E 004°46'0 0.0
2015-Jul-25 14:33N 52°24' E 004°46'0 0.0
2015-Jul-25 13:33N 52°24' E 004°46'0 0.0
2015-Jul-25 12:33N 52°24' E 004°46'0 0.0
2015-Jul-25 11:33N 52°24' E 004°46'0 0.0
2015-Jul-25 10:33N 52°24' E 004°46'0 0.0
2015-Jul-25 09:33N 52°24' E 004°46'0 0.0
2015-Jul-25 08:33N 52°24' E 004°46'0 0.0
2015-Jul-25 07:33N 52°24' E 004°46'0 0.0
2015-Jul-25 06:33N 52°24' E 004°46'0 0.0
2015-Jul-25 05:33N 52°24' E 004°46'0 0.0
2015-Jul-25 04:33N 52°24' E 004°46'0 0.0
2015-Jul-25 03:33N 52°24' E 004°46'0 0.0
2015-Jul-25 02:33N 52°24' E 004°46'0 0.0
2015-Jul-25 01:33N 52°24' E 004°46'0 0.0
2015-Jul-25 00:33N 52°24' E 004°46'0 0.0
2015-Jul-24 23:33N 52°24' E 004°46'0 0.0
2015-Jul-24 22:33N 52°24' E 004°46'0 0.0
2015-Jul-24 21:33N 52°24' E 004°46'0 0.0
2015-Jul-24 20:33N 52°24' E 004°46'0 0.0
2015-Jul-24 19:33N 52°24' E 004°46'0 0.0
2015-Jul-24 18:33N 52°24' E 004°46'0 0.0
2015-Jul-24 17:33N 52°24' E 004°46'0 0.0
2015-Jul-24 16:33N 52°24' E 004°46'0 0.0
2015-Jul-24 15:33N 52°24' E 004°46'0 0.0
2015-Jul-24 14:33N 52°24' E 004°46'0 0.0
2015-Jul-24 13:33N 52°24' E 004°46'  
Track history (hours):
 
Tides and Currents Weather Stations Pressure Air Temp Water Temp Dewpoint Dewpoint Depression Visibility Wind Speed Wind Dir Waves Ship Positions

Suula

Last reported at 2015-Aug-03 12:34 UTC. Time now 2015-Aug-03 13:12 UTC.
Position N 52°03' E 003°51'.

Length 140 m; draft 6.5 m.

Type: Tanker. MMSI: 230956996.

Date/timePositionNaut miles runAvg speedWind from/ knotsBaromVisibWave heightAir tempDewpointWater temp
2015-Aug-03 12:34N 52°03' E 003°51'9 9.2
2015-Aug-03 11:33N 51°58' E 004°03'1 0.6
2015-Aug-03 10:30N 51°58' E 004°02'0 0.0
2015-Aug-03 09:33N 51°58' E 004°02'0 0.0
2015-Aug-03 08:32N 51°58' E 004°02'0 0.0
2015-Aug-03 07:32N 51°58' E 004°02'0 0.0
2015-Aug-03 06:32N 51°58' E 004°02'0 0.0
2015-Aug-03 05:32N 51°58' E 004°02'0 0.0
2015-Aug-03 04:32N 51°58' E 004°02'0 0.0
2015-Aug-03 03:32N 51°58' E 004°02'0 0.0
2015-Aug-03 02:32N 51°58' E 004°02'0 0.0
2015-Aug-03 01:32N 51°58' E 004°02'0 0.0
2015-Aug-03 00:32N 51°58' E 004°02'0 0.0
2015-Aug-02 23:32N 51°58' E 004°02'0 0.0
2015-Aug-02 22:32N 51°58' E 004°02'0 0.0
2015-Aug-02 21:32N 51°58' E 004°02'0 0.0
2015-Aug-02 20:32N 51°58' E 004°02'0 0.0
2015-Aug-02 19:32N 51°58' E 004°02'0 0.0
2015-Aug-02 18:32N 51°58' E 004°02'0 0.0
2015-Aug-02 17:32N 51°58' E 004°02'0 0.0
2015-Aug-02 16:32N 51°58' E 004°02'0 0.0
2015-Aug-02 15:32N 51°58' E 004°02'2 1.9
2015-Aug-02 14:33N 51°59' E 004°05'1414.4
2015-Aug-02 13:33N 51°58' E 003°41'1717.2
2015-Aug-02 12:33N 51°55' E 003°14'12 9.7
2015-Aug-02 11:18N 51°55' E 002°54'0 0.0
2015-Aug-02 10:33N 51°55' E 002°54'0 0.0
2015-Aug-02 09:12N 51°55' E 002°54'0 0.0
2015-Aug-02 08:30N 51°55' E 002°54'0 0.0
2015-Aug-02 07:33N 51°55' E 002°54'0 0.1
2015-Aug-02 06:33N 51°56' E 002°54'0 0.0
2015-Aug-02 04:21N 51°56' E 002°55'0 0.0
2015-Aug-02 03:30N 51°56' E 002°55'0 0.0
2015-Aug-02 02:24N 51°56' E 002°55'0 0.0
2015-Aug-02 01:30N 51°56' E 002°55'0 0.0
2015-Aug-02 00:33N 51°56' E 002°55'0 0.1
2015-Aug-01 22:03N 51°55' E 002°54'0 0.1
2015-Aug-01 21:18N 51°55' E 002°54'0 0.0
2015-Aug-01 20:24N 51°55' E 002°54'0 0.1
2015-Aug-01 19:12N 51°56' E 002°54'0 0.0
2015-Aug-01 18:27N 51°56' E 002°54'0 0.0
2015-Aug-01 17:33N 51°56' E 002°54'0 0.0
2015-Aug-01 16:33N 51°56' E 002°54'0 0.0
2015-Aug-01 15:33N 51°56' E 002°55'0 0.0
2015-Aug-01 13:24N 51°56' E 002°55'34 0.9
2015-Jul-31 01:25N 51°31' E 002°16'910.7
2015-Jul-31 00:33N 51°24' E 002°08'10 9.8
2015-Jul-30 23:33N 51°14' E 002°03'1010.2
2015-Jul-30 22:33N 51°09' E 001°49'1110.8
2015-Jul-30 21:33N 51°02' E 001°36'1110.7
2015-Jul-30 20:33N 50°54' E 001°25'50 9.7
2015-Jul-30 15:22N 50°24' E 000°21'261 9.6
2015-Jul-29 12:09N 47°58' W 005°09'712.7
2015-Jul-29 11:33N 47°55' W 004°59'1312.7
2015-Jul-29 10:33N 47°47' W 004°44'3113.0
2015-Jul-29 08:13N 47°27' W 004°09'812.8
2015-Jul-29 07:34N 47°22' W 003°59'1312.7
2015-Jul-29 06:34N 47°14' W 003°45'1312.5
2015-Jul-29 05:34N 47°07' W 003°30'1312.9
2015-Jul-29 04:33N 46°58' W 003°15'1312.6
2015-Jul-29 03:33N 46°51' W 003°01'1312.3
2015-Jul-29 02:29N 46°43' W 002°46'1212.2
2015-Jul-29 01:32N 46°36' W 002°32'1212.4
2015-Jul-29 00:33N 46°28' W 002°19'1212.1
2015-Jul-28 23:34N 46°21' W 002°05'1212.5
2015-Jul-28 22:34N 46°13' W 001°51'1212.0
2015-Jul-28 21:34N 46°08' W 001°35'1312.6
2015-Jul-28 20:33N 46°06' W 001°17'4 4.0
2015-Jul-28 19:33N 46°09' W 001°14'0 0.0
2015-Jul-28 18:33N 46°09' W 001°14'0 0.0
2015-Jul-28 17:33N 46°09' W 001°14'0 0.0
2015-Jul-28 16:33N 46°09' W 001°14'0 0.0
2015-Jul-28 15:33N 46°09' W 001°14'0 0.0
2015-Jul-28 14:33N 46°09' W 001°14'0 0.0
2015-Jul-28 13:33N 46°09' W 001°14'0 0.0
2015-Jul-28 12:33N 46°09' W 001°14'0 0.0
2015-Jul-28 11:33N 46°09' W 001°14'0 0.0
2015-Jul-28 10:33N 46°09' W 001°14'0 0.0
2015-Jul-28 09:33N 46°09' W 001°14'0 0.0
2015-Jul-28 08:33N 46°09' W 001°14'0 0.0
2015-Jul-28 07:33N 46°09' W 001°14'0 0.0
2015-Jul-28 06:33N 46°09' W 001°14'0 0.0
2015-Jul-28 05:33N 46°09' W 001°14'0 0.0
2015-Jul-28 04:33N 46°09' W 001°14'0 0.5
2015-Jul-28 03:33N 46°09' W 001°15'7 7.0
2015-Jul-28 02:33N 46°06' W 001°24'1413.3
2015-Jul-28 01:32N 46°09' W 001°44'1212.4
2015-Jul-28 00:33N 46°16' W 001°58'1212.3
2015-Jul-27 23:33N 46°23' W 002°12'8113.2
2015-Jul-27 17:27N 47°10' W 003°48'255 8.5
2015-Jul-26 11:26N 50°30' E 000°12'1315.3
2015-Jul-26 10:33N 50°34' E 000°32'1515.1
2015-Jul-26 09:33N 50°43' E 000°52'2814.2
2015-Jul-26 07:33N 51°00' E 001°26'1313.4
2015-Jul-26 06:33N 51°10' E 001°41'1414.0
2015-Jul-26 05:34N 51°22' E 001°54'1515.0
2015-Jul-26 04:33N 51°34' E 002°08'8814.6
2015-Jul-25 22:33N 52°31' E 003°56'1313.2
2015-Jul-25 21:33N 52°30' E 004°17'1211.7
2015-Jul-25 20:33N 52°28' E 004°36'3 3.1
2015-Jul-25 19:33N 52°27' E 004°41'4 4.1
2015-Jul-25 18:33N 52°24' E 004°46'0 0.0
2015-Jul-25 17:30N 52°24' E 004°46'0 0.0
2015-Jul-25 16:33N 52°24' E 004°46'0 0.0
2015-Jul-25 15:33N 52°24' E 004°46'0 0.0
2015-Jul-25 14:33N 52°24' E 004°46'0 0.0
2015-Jul-25 13:33N 52°24' E 004°46'0 0.0
2015-Jul-25 12:33N 52°24' E 004°46'0 0.0
2015-Jul-25 11:33N 52°24' E 004°46'0 0.0
2015-Jul-25 10:33N 52°24' E 004°46'0 0.0
2015-Jul-25 09:33N 52°24' E 004°46'0 0.0
2015-Jul-25 08:33N 52°24' E 004°46'0 0.0
2015-Jul-25 07:33N 52°24' E 004°46'0 0.0
2015-Jul-25 06:33N 52°24' E 004°46'0 0.0
2015-Jul-25 05:33N 52°24' E 004°46'0 0.0
2015-Jul-25 04:33N 52°24' E 004°46'0 0.0
2015-Jul-25 03:33N 52°24' E 004°46'0 0.0
2015-Jul-25 02:33N 52°24' E 004°46'0 0.0
2015-Jul-25 01:33N 52°24' E 004°46'0 0.0
2015-Jul-25 00:33N 52°24' E 004°46'0 0.0
2015-Jul-24 23:33N 52°24' E 004°46'0 0.0
2015-Jul-24 22:33N 52°24' E 004°46'0 0.0
2015-Jul-24 21:33N 52°24' E 004°46'0 0.0
2015-Jul-24 20:33N 52°24' E 004°46'0 0.0
2015-Jul-24 19:33N 52°24' E 004°46'0 0.0
2015-Jul-24 18:33N 52°24' E 004°46'0 0.0
2015-Jul-24 17:33N 52°24' E 004°46'0 0.0
2015-Jul-24 16:33N 52°24' E 004°46'0 0.0
2015-Jul-24 15:33N 52°24' E 004°46'0 0.0
2015-Jul-24 14:33N 52°24' E 004°46'0 0.0
2015-Jul-24 13:33N 52°24' E 004°46'  

Dump ship's entire track history